createdAt,value
2022-09-09T00:00:09.781Z,14.81
2022-09-09T00:01:09.711Z,14.73
2022-09-09T00:02:09.744Z,14.82
2022-09-09T00:03:09.739Z,14.79
2022-09-09T00:04:09.560Z,14.79
2022-09-09T00:05:09.551Z,14.79
2022-09-09T00:06:09.481Z,14.79
2022-09-09T00:07:09.393Z,14.70
2022-09-09T00:08:09.367Z,14.69
2022-09-09T00:09:09.306Z,14.62
2022-09-09T00:10:09.260Z,14.55
2022-09-09T00:11:09.200Z,14.51
2022-09-09T00:12:09.142Z,14.44
2022-09-09T00:13:09.103Z,14.50
2022-09-09T00:14:09.053Z,14.48
2022-09-09T00:15:09.001Z,14.43
2022-09-09T00:16:09.063Z,14.41
2022-09-09T00:17:08.898Z,14.41
2022-09-09T00:18:08.852Z,14.41
2022-09-09T00:19:08.798Z,14.37
2022-09-09T00:20:08.727Z,14.37
2022-09-09T00:21:08.719Z,14.44
2022-09-09T00:22:08.635Z,14.37
2022-09-09T00:23:08.593Z,14.40
2022-09-09T00:24:08.532Z,14.41
2022-09-09T00:25:08.504Z,14.43
2022-09-09T00:26:08.411Z,14.40
2022-09-09T00:27:08.417Z,14.41
2022-09-09T00:28:08.314Z,14.29
2022-09-09T00:29:08.281Z,14.32
2022-09-09T00:30:08.231Z,14.30
2022-09-09T00:31:08.200Z,14.36
2022-09-09T00:32:08.107Z,14.41
2022-09-09T00:33:12.017Z,14.47
2022-09-09T00:34:08.027Z,14.48
2022-09-09T00:35:07.974Z,14.51
2022-09-09T00:36:07.916Z,14.58
2022-09-09T00:37:07.840Z,14.55
2022-09-09T00:38:07.823Z,14.58
2022-09-09T00:39:07.743Z,14.63
2022-09-09T00:40:07.748Z,14.63
2022-09-09T00:41:07.656Z,14.68
2022-09-09T00:42:07.601Z,14.79
2022-09-09T00:43:07.579Z,14.78
2022-09-09T00:44:07.486Z,14.79
2022-09-09T00:45:07.476Z,14.65
2022-09-09T00:46:07.459Z,14.69
2022-09-09T00:47:07.340Z,14.63
2022-09-09T00:48:07.447Z,14.65
2022-09-09T00:49:07.220Z,14.54
2022-09-09T00:50:07.200Z,14.54
2022-09-09T00:51:07.129Z,14.60
2022-09-09T00:52:07.101Z,14.58
2022-09-09T00:53:07.030Z,14.41
2022-09-09T00:54:07.008Z,14.54
2022-09-09T00:55:06.940Z,14.55
2022-09-09T00:56:06.874Z,14.51
2022-09-09T00:57:06.828Z,14.43
2022-09-09T00:58:06.758Z,14.59
2022-09-09T00:59:06.712Z,14.62
2022-09-09T01:00:06.702Z,14.65
2022-09-09T01:01:06.637Z,14.51
2022-09-09T01:02:06.617Z,14.65
2022-09-09T01:03:06.515Z,14.73
2022-09-09T01:04:06.469Z,14.79
2022-09-09T01:05:06.460Z,14.69
2022-09-09T01:06:06.349Z,14.68
2022-09-09T01:07:06.306Z,14.60
2022-09-09T01:08:06.243Z,14.58
2022-09-09T01:09:06.240Z,14.68
2022-09-09T01:10:06.163Z,14.66
2022-09-09T01:11:06.100Z,14.78
2022-09-09T01:12:06.077Z,14.65
2022-09-09T01:13:06.009Z,14.69
2022-09-09T01:14:05.939Z,14.68
2022-09-09T01:15:05.919Z,14.77
2022-09-09T01:16:05.847Z,14.72
2022-09-09T01:17:05.831Z,14.85
2022-09-09T01:18:05.735Z,14.79
2022-09-09T01:19:05.694Z,14.82
2022-09-09T01:20:05.656Z,14.89
2022-09-09T01:21:05.609Z,14.91
2022-09-09T01:22:05.511Z,14.96
2022-09-09T01:23:05.468Z,14.99
2022-09-09T01:24:05.418Z,14.99
2022-09-09T01:25:05.400Z,15.03
2022-09-09T01:26:05.330Z,15.06
2022-09-09T01:27:05.257Z,15.00
2022-09-09T01:28:05.199Z,14.99
2022-09-09T01:29:05.149Z,15.02
2022-09-09T01:30:05.146Z,15.03
2022-09-09T01:31:05.110Z,15.00
2022-09-09T01:32:05.010Z,14.92
2022-09-09T01:33:04.948Z,14.91
2022-09-09T01:34:04.898Z,14.84
2022-09-09T01:35:04.860Z,14.81
2022-09-09T01:36:04.837Z,14.84
2022-09-09T01:37:04.750Z,14.82
2022-09-09T01:38:04.710Z,14.84
2022-09-09T01:39:04.631Z,14.82
2022-09-09T01:40:04.676Z,14.91
2022-09-09T01:41:04.577Z,14.88
2022-09-09T01:42:04.503Z,14.89
2022-09-09T01:43:04.433Z,14.97
2022-09-09T01:44:04.373Z,14.92
2022-09-09T01:45:04.375Z,14.92
2022-09-09T01:46:04.372Z,14.85
2022-09-09T01:47:04.236Z,14.85
2022-09-09T01:48:04.209Z,14.88
2022-09-09T01:49:04.164Z,14.85
2022-09-09T01:50:04.082Z,14.86
2022-09-09T01:51:04.051Z,14.85
2022-09-09T01:52:03.986Z,14.92
2022-09-09T01:53:03.920Z,14.99
2022-09-09T01:54:03.908Z,14.96
2022-09-09T01:55:03.800Z,15.06
2022-09-09T01:56:03.769Z,14.94
2022-09-09T01:57:03.699Z,14.91
2022-09-09T01:58:03.666Z,14.85
2022-09-09T01:59:03.649Z,14.88
2022-09-09T02:00:03.559Z,14.99
2022-09-09T02:01:03.542Z,14.99
2022-09-09T02:02:03.502Z,15.04
2022-09-09T02:03:03.399Z,15.00
2022-09-09T02:04:03.352Z,15.04
2022-09-09T02:05:03.329Z,15.03
2022-09-09T02:06:03.229Z,15.09
2022-09-09T02:07:03.233Z,15.07
2022-09-09T02:08:03.169Z,15.10
2022-09-09T02:09:03.091Z,15.17
2022-09-09T02:10:03.062Z,14.99
2022-09-09T02:11:02.990Z,15.06
2022-09-09T02:12:02.959Z,15.09
2022-09-09T02:13:02.874Z,15.02
2022-09-09T02:14:02.833Z,15.00
2022-09-09T02:15:02.772Z,14.89
2022-09-09T02:16:02.764Z,14.86
2022-09-09T02:17:02.710Z,14.78
2022-09-09T02:18:02.654Z,14.79
2022-09-09T02:19:03.417Z,14.78
2022-09-09T02:20:02.527Z,14.66
2022-09-09T02:21:02.473Z,14.70
2022-09-09T02:22:02.451Z,14.63
2022-09-09T02:23:02.446Z,14.58
2022-09-09T02:24:02.291Z,14.66
2022-09-09T02:25:02.281Z,14.54
2022-09-09T02:26:02.210Z,14.58
2022-09-09T02:27:02.149Z,14.54
2022-09-09T02:28:02.111Z,14.60
2022-09-09T02:29:02.027Z,14.63
2022-09-09T02:30:02.031Z,14.68
2022-09-09T02:31:02.019Z,14.63
2022-09-09T02:32:01.906Z,14.82
2022-09-09T02:33:01.864Z,14.78
2022-09-09T02:34:01.808Z,14.82
2022-09-09T02:35:01.776Z,14.79
2022-09-09T02:36:01.679Z,14.85
2022-09-09T02:37:01.651Z,14.73
2022-09-09T02:38:01.593Z,14.73
2022-09-09T02:39:01.542Z,14.77
2022-09-09T02:40:01.647Z,14.79
2022-09-09T02:41:01.438Z,14.78
2022-09-09T02:42:01.378Z,14.77
2022-09-09T02:43:01.336Z,14.69
2022-09-09T02:44:01.271Z,14.68
2022-09-09T02:45:01.261Z,14.65
2022-09-09T02:46:01.221Z,14.66
2022-09-09T02:47:01.119Z,14.58
2022-09-09T02:48:01.068Z,14.53
2022-09-09T02:49:01.011Z,14.58
2022-09-09T02:50:00.977Z,14.55
2022-09-09T02:51:00.943Z,14.51
2022-09-09T02:52:00.865Z,14.53
2022-09-09T02:53:00.811Z,14.55
2022-09-09T02:54:00.771Z,14.48
2022-09-09T02:55:00.715Z,14.47
2022-09-09T02:56:00.678Z,14.51
2022-09-09T02:57:00.600Z,14.51
2022-09-09T02:58:00.540Z,14.54
2022-09-09T02:59:00.527Z,14.48
2022-09-09T03:00:00.443Z,14.59
2022-09-09T03:01:00.441Z,14.51
2022-09-09T03:02:00.401Z,14.53
2022-09-09T03:03:00.288Z,14.59
2022-09-09T03:04:00.233Z,14.58
2022-09-09T03:05:00.161Z,14.40
2022-09-09T03:06:07.142Z,14.41
2022-09-09T03:07:00.039Z,14.54
2022-09-09T03:07:59.988Z,14.53
2022-09-09T03:08:59.932Z,14.54
2022-09-09T03:09:59.883Z,14.59
2022-09-09T03:10:59.831Z,14.65
2022-09-09T03:11:59.790Z,14.62
2022-09-09T03:12:59.728Z,14.53
2022-09-09T03:13:59.673Z,14.59
2022-09-09T03:14:59.620Z,14.55
2022-09-09T03:15:59.571Z,14.62
2022-09-09T03:16:59.581Z,14.54
2022-09-09T03:17:59.464Z,14.53
2022-09-09T03:18:59.427Z,14.54
2022-09-09T03:19:59.362Z,14.53
2022-09-09T03:20:59.306Z,14.55
2022-09-09T03:21:59.254Z,14.51
2022-09-09T03:22:59.210Z,14.51
2022-09-09T03:23:59.166Z,14.55
2022-09-09T03:24:59.112Z,14.53
2022-09-09T03:25:59.047Z,14.44
2022-09-09T03:26:58.997Z,14.51
2022-09-09T03:27:58.953Z,14.54
2022-09-09T03:28:58.946Z,14.50
2022-09-09T03:29:58.840Z,14.45
2022-09-09T03:30:58.797Z,14.50
2022-09-09T03:31:58.777Z,14.43
2022-09-09T03:32:58.681Z,14.47
2022-09-09T03:33:58.632Z,14.40
2022-09-09T03:34:58.593Z,14.51
2022-09-09T03:35:58.524Z,14.43
2022-09-09T03:36:58.478Z,14.45
2022-09-09T03:37:58.423Z,14.40
2022-09-09T03:38:58.386Z,14.47
2022-09-09T03:39:58.382Z,14.45
2022-09-09T03:40:58.268Z,14.41
2022-09-09T03:41:58.215Z,14.35
2022-09-09T03:42:58.163Z,14.36
2022-09-09T03:43:58.131Z,14.26
2022-09-09T03:44:58.072Z,14.26
2022-09-09T03:45:58.199Z,14.23
2022-09-09T03:46:57.972Z,14.23
2022-09-09T03:47:57.905Z,14.18
2022-09-09T03:48:57.866Z,14.14
2022-09-09T03:49:57.799Z,14.04
2022-09-09T03:50:57.747Z,14.14
2022-09-09T03:51:57.699Z,14.08
2022-09-09T03:52:57.643Z,14.10
2022-09-09T03:53:57.613Z,14.07
2022-09-09T03:54:57.539Z,13.97
2022-09-09T03:55:57.488Z,14.05
2022-09-09T03:56:57.435Z,14.05
2022-09-09T03:57:57.383Z,14.04
2022-09-09T03:58:57.332Z,13.99
2022-09-09T03:59:57.334Z,14.07
2022-09-09T04:00:57.280Z,13.96
2022-09-09T04:01:57.196Z,13.93
2022-09-09T04:02:57.135Z,14.04
2022-09-09T04:03:57.085Z,14.03
2022-09-09T04:04:57.016Z,14.00
2022-09-09T04:05:56.990Z,14.08
2022-09-09T04:06:56.915Z,14.11
2022-09-09T04:07:56.862Z,14.17
2022-09-09T04:08:56.825Z,14.08
2022-09-09T04:09:56.756Z,14.12
2022-09-09T04:10:56.707Z,14.14
2022-09-09T04:11:56.653Z,14.15
2022-09-09T04:12:56.606Z,14.20
2022-09-09T04:13:56.567Z,14.15
2022-09-09T04:14:56.498Z,14.20
2022-09-09T04:15:56.452Z,14.17
2022-09-09T04:16:56.522Z,14.23
2022-09-09T04:17:56.343Z,14.35
2022-09-09T04:18:56.304Z,14.29
2022-09-09T04:19:56.243Z,14.30
2022-09-09T04:20:56.187Z,14.25
2022-09-09T04:21:56.135Z,14.35
2022-09-09T04:22:56.100Z,14.33
2022-09-09T04:23:56.034Z,14.30
2022-09-09T04:24:55.976Z,14.35
2022-09-09T04:25:55.929Z,14.33
2022-09-09T04:26:55.876Z,14.35
2022-09-09T04:27:55.852Z,14.37
2022-09-09T04:28:55.769Z,14.40
2022-09-09T04:29:55.719Z,14.36
2022-09-09T04:30:55.669Z,14.37
2022-09-09T04:31:55.742Z,14.28
2022-09-09T04:32:55.563Z,14.37
2022-09-09T04:33:55.588Z,14.28
2022-09-09T04:34:55.460Z,14.30
2022-09-09T04:35:55.406Z,14.36
2022-09-09T04:36:55.356Z,14.32
2022-09-09T04:37:55.304Z,14.35
2022-09-09T04:38:55.268Z,14.29
2022-09-09T04:39:55.295Z,14.25
2022-09-09T04:40:55.144Z,14.20
2022-09-09T04:41:55.095Z,14.23
2022-09-09T04:42:55.042Z,14.25
2022-09-09T04:43:55.008Z,14.20
2022-09-09T04:44:54.954Z,14.26
2022-09-09T04:45:54.962Z,14.15
2022-09-09T04:46:54.851Z,14.20
2022-09-09T04:47:54.791Z,14.08
2022-09-09T04:48:54.771Z,14.22
2022-09-09T04:49:54.680Z,14.07
2022-09-09T04:50:54.630Z,14.25
2022-09-09T04:51:54.591Z,14.12
2022-09-09T04:52:54.538Z,14.05
2022-09-09T04:53:54.518Z,14.17
2022-09-09T04:54:54.421Z,14.10
2022-09-09T04:55:54.372Z,14.11
2022-09-09T04:56:54.316Z,14.11
2022-09-09T04:57:54.263Z,14.11
2022-09-09T04:58:54.225Z,14.03
2022-09-09T04:59:54.160Z,14.05
2022-09-09T05:00:54.205Z,14.08
2022-09-09T05:01:54.105Z,14.03
2022-09-09T05:02:54.007Z,13.93
2022-09-09T05:03:53.952Z,13.90
2022-09-09T05:04:53.900Z,13.87
2022-09-09T05:05:53.881Z,13.89
2022-09-09T05:06:53.797Z,13.83
2022-09-09T05:07:53.746Z,13.85
2022-09-09T05:08:53.701Z,13.85
2022-09-09T05:09:53.642Z,13.81
2022-09-09T05:10:53.607Z,13.78
2022-09-09T05:11:53.535Z,13.74
2022-09-09T05:12:53.485Z,13.78
2022-09-09T05:13:53.435Z,13.78
2022-09-09T05:14:53.383Z,13.75
2022-09-09T05:15:53.390Z,13.77
2022-09-09T05:16:53.293Z,13.77
2022-09-09T05:17:53.241Z,13.78
2022-09-09T05:18:53.173Z,13.68
2022-09-09T05:19:53.120Z,13.68
2022-09-09T05:20:53.068Z,13.65
2022-09-09T05:21:53.013Z,13.70
2022-09-09T05:22:52.978Z,13.65
2022-09-09T05:23:52.961Z,13.72
2022-09-09T05:24:52.860Z,13.79
2022-09-09T05:25:52.822Z,13.83
2022-09-09T05:26:52.755Z,13.85
2022-09-09T05:27:52.717Z,13.85
2022-09-09T05:28:52.668Z,13.85
2022-09-09T05:29:52.595Z,13.96
2022-09-09T05:30:52.546Z,14.00
2022-09-09T05:31:52.556Z,14.05
2022-09-09T05:32:52.442Z,14.08
2022-09-09T05:33:52.389Z,14.08
2022-09-09T05:34:52.340Z,14.07
2022-09-09T05:35:52.300Z,14.15
2022-09-09T05:36:52.233Z,14.12
2022-09-09T05:37:52.184Z,14.14
2022-09-09T05:38:52.133Z,14.15
2022-09-09T05:39:52.131Z,14.07
2022-09-09T05:40:52.022Z,14.10
2022-09-09T05:41:51.973Z,14.07
2022-09-09T05:42:51.920Z,14.08
2022-09-09T05:43:51.868Z,14.11
2022-09-09T05:44:51.832Z,14.14
2022-09-09T05:45:51.767Z,14.08
2022-09-09T05:46:51.775Z,14.17
2022-09-09T05:47:51.659Z,14.28
2022-09-09T05:48:51.605Z,14.22
2022-09-09T05:49:51.558Z,14.28
2022-09-09T05:50:51.502Z,14.29
2022-09-09T05:51:51.473Z,14.29
2022-09-09T05:52:51.398Z,14.30
2022-09-09T05:53:51.346Z,14.41
2022-09-09T05:54:51.295Z,14.44
2022-09-09T05:55:51.244Z,14.47
2022-09-09T05:56:51.941Z,14.40
2022-09-09T05:57:51.138Z,14.43
2022-09-09T05:58:51.085Z,14.54
2022-09-09T05:59:51.051Z,14.53
2022-09-09T06:00:50.987Z,14.51
2022-09-09T06:01:51.038Z,14.51
2022-09-09T06:02:51.068Z,14.60
2022-09-09T06:03:50.826Z,14.68
2022-09-09T06:04:50.770Z,14.66
2022-09-09T06:05:50.718Z,14.72
2022-09-09T06:06:50.669Z,14.81
2022-09-09T06:07:50.629Z,14.84
2022-09-09T06:08:50.563Z,14.79
2022-09-09T06:09:50.512Z,14.82
2022-09-09T06:10:50.460Z,14.85
2022-09-09T06:11:50.425Z,14.88
2022-09-09T06:12:50.399Z,14.96
2022-09-09T06:13:50.305Z,15.00
2022-09-09T06:14:50.266Z,15.06
2022-09-09T06:15:50.279Z,15.02
2022-09-09T06:16:50.163Z,15.06
2022-09-09T06:17:50.106Z,15.14
2022-09-09T06:18:50.052Z,15.11
2022-09-09T06:19:49.995Z,15.17
2022-09-09T06:20:49.940Z,15.17
2022-09-09T06:21:49.901Z,15.18
2022-09-09T06:22:49.837Z,15.15
2022-09-09T06:23:49.802Z,15.15
2022-09-09T06:24:49.733Z,15.14
2022-09-09T06:25:49.680Z,15.22
2022-09-09T06:26:49.637Z,15.24
2022-09-09T06:27:49.581Z,15.24
2022-09-09T06:28:49.525Z,15.31
2022-09-09T06:29:49.487Z,15.28
2022-09-09T06:30:49.421Z,15.36
2022-09-09T06:31:49.474Z,15.40
2022-09-09T06:32:49.316Z,15.37
2022-09-09T06:33:49.282Z,15.42
2022-09-09T06:34:49.215Z,15.40
2022-09-09T06:35:49.164Z,15.51
2022-09-09T06:36:49.109Z,15.51
2022-09-09T06:37:49.071Z,15.52
2022-09-09T06:38:49.007Z,15.55
2022-09-09T06:39:49.016Z,15.47
2022-09-09T06:40:48.904Z,15.61
2022-09-09T06:41:48.852Z,15.65
2022-09-09T06:42:48.816Z,15.59
2022-09-09T06:43:48.762Z,15.59
2022-09-09T06:44:48.697Z,15.67
2022-09-09T06:45:48.645Z,15.64
2022-09-09T06:46:48.641Z,15.59
2022-09-09T06:47:48.542Z,15.61
2022-09-09T06:48:48.500Z,15.61
2022-09-09T06:49:48.615Z,15.65
2022-09-09T06:50:48.400Z,15.64
2022-09-09T06:51:48.337Z,15.61
2022-09-09T06:52:48.283Z,15.61
2022-09-09T06:53:48.376Z,15.67
2022-09-09T06:54:48.198Z,15.67
2022-09-09T06:55:48.146Z,15.67
2022-09-09T06:56:48.092Z,15.65
2022-09-09T06:57:48.027Z,15.68
2022-09-09T06:58:47.974Z,15.67
2022-09-09T06:59:47.943Z,15.68
2022-09-09T07:00:47.930Z,15.64
2022-09-09T07:01:50.276Z,15.64
2022-09-09T07:02:47.767Z,15.61
2022-09-09T07:03:47.716Z,15.58
2022-09-09T07:04:47.683Z,15.61
2022-09-09T07:05:47.614Z,15.67
2022-09-09T07:06:47.561Z,15.67
2022-09-09T07:07:47.507Z,15.65
2022-09-09T07:08:55.984Z,15.70
2022-09-09T07:09:47.434Z,15.75
2022-09-09T07:10:47.353Z,15.73
2022-09-09T07:11:47.301Z,15.73
2022-09-09T07:12:47.254Z,15.73
2022-09-09T07:13:47.213Z,15.83
2022-09-09T07:14:47.149Z,15.76
2022-09-09T07:15:47.119Z,15.80
2022-09-09T07:16:47.057Z,15.73
2022-09-09T07:17:46.993Z,15.76
2022-09-09T07:18:46.953Z,15.72
2022-09-09T07:19:46.889Z,15.73
2022-09-09T07:20:46.838Z,15.82
2022-09-09T07:21:46.807Z,15.80
2022-09-09T07:22:46.734Z,15.80
2022-09-09T07:23:46.682Z,15.72
2022-09-09T07:24:46.631Z,15.77
2022-09-09T07:25:46.579Z,15.73
2022-09-09T07:26:46.542Z,15.77
2022-09-09T07:27:46.491Z,15.72
2022-09-09T07:28:46.422Z,15.82
2022-09-09T07:29:46.385Z,15.79
2022-09-09T07:30:46.325Z,15.82
2022-09-09T07:31:46.291Z,15.83
2022-09-09T07:32:46.231Z,15.83
2022-09-09T07:33:46.166Z,15.83
2022-09-09T07:34:46.116Z,15.91
2022-09-09T07:35:46.064Z,15.94
2022-09-09T07:36:46.026Z,16.04
2022-09-09T07:37:50.680Z,15.95
2022-09-09T07:38:45.908Z,15.94
2022-09-09T07:39:45.921Z,16.02
2022-09-09T07:40:45.806Z,15.97
2022-09-09T07:41:45.769Z,16.04
2022-09-09T07:42:45.705Z,16.02
2022-09-09T07:43:45.668Z,16.08
2022-09-09T07:44:45.600Z,16.12
2022-09-09T07:45:45.548Z,16.01
2022-09-09T07:46:45.617Z,16.09
2022-09-09T07:47:45.450Z,16.02
2022-09-09T07:48:45.397Z,16.08
2022-09-09T07:49:45.344Z,16.08
2022-09-09T07:50:45.295Z,16.08
2022-09-09T07:51:45.251Z,16.05
2022-09-09T07:52:45.188Z,16.05
2022-09-09T07:53:45.155Z,16.01
2022-09-09T07:54:45.086Z,16.04
2022-09-09T07:55:45.035Z,16.05
2022-09-09T07:56:45.004Z,16.05
2022-09-09T07:57:44.932Z,16.05
2022-09-09T07:58:44.892Z,15.98
2022-09-09T07:59:44.844Z,16.05
2022-09-09T08:00:44.778Z,16.02
2022-09-09T08:01:44.799Z,16.00
2022-09-09T08:02:44.724Z,16.08
2022-09-09T08:03:44.625Z,16.09
2022-09-09T08:04:44.571Z,16.04
2022-09-09T08:05:44.522Z,16.04
2022-09-09T08:06:44.471Z,16.09
2022-09-09T08:07:44.436Z,16.04
2022-09-09T08:08:44.367Z,16.17
2022-09-09T08:09:44.342Z,16.20
2022-09-09T08:10:44.266Z,16.17
2022-09-09T08:11:44.215Z,16.36
2022-09-09T08:13:01.419Z,16.39
2022-09-09T08:13:44.113Z,16.66
2022-09-09T08:14:44.073Z,16.78
2022-09-09T08:15:44.097Z,16.74
2022-09-09T08:16:43.957Z,16.72
2022-09-09T08:17:43.920Z,16.75
2022-09-09T08:18:43.858Z,16.87
2022-09-09T08:19:43.802Z,16.90
2022-09-09T08:20:43.752Z,16.90
2022-09-09T08:21:43.701Z,16.72
2022-09-09T08:22:43.679Z,16.78
2022-09-09T08:23:43.601Z,16.79
2022-09-09T08:24:43.547Z,16.74
2022-09-09T08:25:43.496Z,16.76
2022-09-09T08:26:43.447Z,16.79
2022-09-09T08:27:43.397Z,16.84
2022-09-09T08:28:43.358Z,16.93
2022-09-09T08:29:43.295Z,17.05
2022-09-09T08:30:43.257Z,17.12
2022-09-09T08:31:43.205Z,17.65
2022-09-09T08:32:45.573Z,17.83
2022-09-09T08:33:43.104Z,17.59
2022-09-09T08:34:46.575Z,17.74
2022-09-09T08:35:42.992Z,18.40
2022-09-09T08:36:42.938Z,18.96
2022-09-09T08:37:42.886Z,19.49
2022-09-09T08:38:42.854Z,19.59
2022-09-09T08:39:42.858Z,19.95
2022-09-09T08:40:42.767Z,20.60
2022-09-09T08:41:42.690Z,20.65
2022-09-09T08:42:42.656Z,20.56
2022-09-09T08:43:42.609Z,21.24
2022-09-09T08:44:45.586Z,21.37
2022-09-09T08:45:42.494Z,21.24
2022-09-09T08:46:42.489Z,21.57
2022-09-09T08:47:42.397Z,21.55
2022-09-09T08:48:42.353Z,21.60
2022-09-09T08:49:42.317Z,21.20
2022-09-09T08:50:42.253Z,20.84
2022-09-09T08:51:42.205Z,20.22
2022-09-09T08:52:42.170Z,19.95
2022-09-09T08:53:42.107Z,19.91
2022-09-09T08:54:52.041Z,20.09
2022-09-09T08:55:42.014Z,19.95
2022-09-09T08:56:41.976Z,20.59
2022-09-09T08:57:41.929Z,21.27
2022-09-09T08:58:41.872Z,22.06
2022-09-09T08:59:41.821Z,21.58
2022-09-09T09:00:41.772Z,20.99
2022-09-09T09:01:41.834Z,20.72
2022-09-09T09:02:41.688Z,20.82
2022-09-09T09:03:41.630Z,21.09
2022-09-09T09:04:41.638Z,20.87
2022-09-09T09:05:41.582Z,20.28
2022-09-09T09:06:41.505Z,19.59
2022-09-09T09:07:41.455Z,19.22
2022-09-09T09:08:41.392Z,18.96
2022-09-09T09:09:41.342Z,18.95
2022-09-09T09:11:56.557Z,19.47
2022-09-09T09:12:56.457Z,19.63
2022-09-09T09:13:56.404Z,19.59
2022-09-09T09:14:56.379Z,19.70
2022-09-09T09:15:56.338Z,19.62
2022-09-09T09:16:56.300Z,19.56
2022-09-09T09:17:56.229Z,19.51
2022-09-09T09:18:56.178Z,19.45
2022-09-09T09:19:56.122Z,19.79
2022-09-09T09:20:56.090Z,20.19
2022-09-09T09:21:56.031Z,20.25
2022-09-09T09:22:55.984Z,20.25
2022-09-09T09:23:55.939Z,20.06
2022-09-09T09:24:55.881Z,20.28
2022-09-09T09:25:55.827Z,20.58
2022-09-09T09:26:55.798Z,20.43
2022-09-09T09:27:55.758Z,20.09
2022-09-09T09:28:55.722Z,19.99
2022-09-09T09:30:21.538Z,19.92
2022-09-09T09:30:55.605Z,19.69
2022-09-09T09:31:55.567Z,19.55
2022-09-09T09:32:55.480Z,19.40
2022-09-09T09:33:55.457Z,19.29
2022-09-09T09:34:55.405Z,19.24
2022-09-09T09:35:55.391Z,19.21
2022-09-09T09:36:55.335Z,19.12
2022-09-09T09:40:55.132Z,18.33
2022-09-09T09:41:55.117Z,18.07
2022-09-09T09:42:55.037Z,18.03
2022-09-09T09:43:54.989Z,17.86
2022-09-09T09:44:54.936Z,17.65
2022-09-09T09:46:14.389Z,17.65
2022-09-09T09:46:54.910Z,17.63
2022-09-09T09:48:00.079Z,17.57
2022-09-09T09:48:54.708Z,17.52
2022-09-09T09:49:54.676Z,17.57
2022-09-09T09:50:54.596Z,17.45
2022-09-09T09:51:54.608Z,17.51
2022-09-09T09:52:54.515Z,17.52
2022-09-09T09:53:54.492Z,17.45
2022-09-09T09:54:54.419Z,17.41
2022-09-09T09:55:54.349Z,17.11
2022-09-09T09:56:54.324Z,17.04
2022-09-09T09:57:54.389Z,17.01
2022-09-09T09:58:54.248Z,17.02
2022-09-09T09:59:54.184Z,16.96
2022-09-09T10:00:54.116Z,16.87
2022-09-09T10:01:54.122Z,17.02
2022-09-09T10:02:54.000Z,17.12
2022-09-09T10:03:53.948Z,17.16
2022-09-09T10:04:53.948Z,17.27
2022-09-09T10:05:53.860Z,17.76
2022-09-09T10:06:53.869Z,18.23
2022-09-09T10:07:53.770Z,18.26
2022-09-09T10:08:53.711Z,18.45
2022-09-09T10:09:53.645Z,18.83
2022-09-09T10:10:53.635Z,19.33
2022-09-09T10:11:53.549Z,19.95
2022-09-09T10:12:53.531Z,20.36
2022-09-09T10:13:53.444Z,20.59
2022-09-09T10:14:53.403Z,21.03
2022-09-09T10:15:53.450Z,21.22
2022-09-09T10:16:53.403Z,21.40
2022-09-09T10:17:53.254Z,21.61
2022-09-09T10:18:53.257Z,21.66
2022-09-09T10:19:53.199Z,21.83
2022-09-09T10:20:53.156Z,22.08
2022-09-09T10:21:53.060Z,21.99
2022-09-09T10:22:53.046Z,21.85
2022-09-09T10:23:52.994Z,21.99
2022-09-09T10:24:52.991Z,22.15
2022-09-09T10:25:52.907Z,22.02
2022-09-09T10:26:52.827Z,22.10
2022-09-09T10:27:57.807Z,21.92
2022-09-09T10:28:52.739Z,21.70
2022-09-09T10:29:52.721Z,21.85
2022-09-09T10:30:52.676Z,21.95
2022-09-09T10:31:52.603Z,21.82
2022-09-09T10:32:52.543Z,21.76
2022-09-09T10:33:52.511Z,21.39
2022-09-09T10:34:52.473Z,20.77
2022-09-09T10:35:52.449Z,20.36
2022-09-09T10:36:52.361Z,20.26
2022-09-09T10:37:52.323Z,20.25
2022-09-09T10:38:52.277Z,19.85
2022-09-09T10:39:52.253Z,19.55
2022-09-09T10:40:52.196Z,19.09
2022-09-09T10:41:52.119Z,18.90
2022-09-09T10:42:52.076Z,18.93
2022-09-09T10:43:52.035Z,18.84
2022-09-09T10:44:51.975Z,18.80
2022-09-09T10:45:52.018Z,18.65
2022-09-09T10:46:51.948Z,18.45
2022-09-09T10:47:51.842Z,18.49
2022-09-09T10:48:51.779Z,18.47
2022-09-09T10:49:51.747Z,18.29
2022-09-09T10:51:07.303Z,18.19
2022-09-09T10:51:51.627Z,18.07
2022-09-09T10:52:51.591Z,17.98
2022-09-09T10:53:51.520Z,18.13
2022-09-09T10:54:51.482Z,18.10
2022-09-09T10:55:51.600Z,18.08
2022-09-09T10:56:51.370Z,18.11
2022-09-09T10:57:51.393Z,18.11
2022-09-09T10:58:51.292Z,18.03
2022-09-09T10:59:51.293Z,18.05
2022-09-09T11:00:53.800Z,17.98
2022-09-09T11:01:51.318Z,18.00
2022-09-09T11:02:51.082Z,17.92
2022-09-09T11:03:51.044Z,17.87
2022-09-09T11:04:50.999Z,17.65
2022-09-09T11:05:50.975Z,17.63
2022-09-09T11:06:50.914Z,17.67
2022-09-09T11:07:50.848Z,17.48
2022-09-09T11:08:53.753Z,17.52
2022-09-09T11:09:50.729Z,17.52
2022-09-09T11:10:50.703Z,17.52
2022-09-09T11:11:50.656Z,17.51
2022-09-09T11:12:50.597Z,17.60
2022-09-09T11:13:50.598Z,17.56
2022-09-09T11:14:50.497Z,17.57
2022-09-09T11:15:50.470Z,17.83
2022-09-09T11:16:50.435Z,18.16
2022-09-09T11:17:50.350Z,18.28
2022-09-09T11:18:50.300Z,18.41
2022-09-09T11:19:50.274Z,18.63
2022-09-09T11:20:50.209Z,18.73
2022-09-09T11:21:50.190Z,18.98
2022-09-09T11:22:50.098Z,19.11
2022-09-09T11:23:50.031Z,19.41
2022-09-09T11:24:50.030Z,19.77
2022-09-09T11:25:49.944Z,19.74
2022-09-09T11:26:49.922Z,19.76
2022-09-09T11:27:49.911Z,19.58
2022-09-09T11:28:49.784Z,19.67
2022-09-09T11:29:49.785Z,20.10
2022-09-09T11:30:56.661Z,20.16
2022-09-09T11:31:49.718Z,20.36
2022-09-09T11:32:49.604Z,20.67
2022-09-09T11:33:49.574Z,20.72
2022-09-09T11:34:49.538Z,20.99
2022-09-09T11:35:49.459Z,21.12
2022-09-09T11:36:49.392Z,21.07
2022-09-09T11:37:49.371Z,21.02
2022-09-09T11:38:49.341Z,20.88
2022-09-09T11:39:49.326Z,20.97
2022-09-09T11:40:49.223Z,21.09
2022-09-09T11:41:49.169Z,21.27
2022-09-09T11:42:49.103Z,20.87
2022-09-09T11:43:49.072Z,20.65
2022-09-09T11:44:49.058Z,20.36
2022-09-09T11:45:49.017Z,19.86
2022-09-09T11:46:48.950Z,19.84
2022-09-09T11:47:48.875Z,20.02
2022-09-09T11:48:48.831Z,20.41
2022-09-09T11:49:48.792Z,20.82
2022-09-09T11:50:48.817Z,21.33
2022-09-09T11:51:48.685Z,21.30
2022-09-09T11:52:48.666Z,21.27
2022-09-09T11:53:48.595Z,21.39
2022-09-09T11:54:48.561Z,21.30
2022-09-09T11:55:48.525Z,21.21
2022-09-09T11:56:48.444Z,21.18
2022-09-09T11:57:49.647Z,21.18
2022-09-09T11:58:48.568Z,21.22
2022-09-09T11:59:48.305Z,21.32
2022-09-09T12:00:48.267Z,21.06
2022-09-09T12:01:48.246Z,20.93
2022-09-09T12:02:48.174Z,21.18
2022-09-09T12:03:48.185Z,21.32
2022-09-09T12:04:48.134Z,21.37
2022-09-09T12:05:48.047Z,21.50
2022-09-09T12:06:48.012Z,21.40
2022-09-09T12:07:47.965Z,21.29
2022-09-09T12:08:47.906Z,21.25
2022-09-09T12:09:47.832Z,21.15
2022-09-09T12:10:47.836Z,21.15
2022-09-09T12:11:47.777Z,20.92
2022-09-09T12:12:47.672Z,20.88
2022-09-09T12:13:47.651Z,21.00
2022-09-09T12:14:47.717Z,21.33
2022-09-09T12:15:47.566Z,21.55
2022-09-09T12:16:47.545Z,21.43
2022-09-09T12:17:47.709Z,21.29
2022-09-09T12:18:47.447Z,21.22
2022-09-09T12:19:47.356Z,21.07
2022-09-09T12:20:47.326Z,21.02
2022-09-09T12:21:47.283Z,20.85
2022-09-09T12:22:47.244Z,20.66
2022-09-09T12:23:47.164Z,20.55
2022-09-09T12:24:47.116Z,20.41
2022-09-09T12:25:47.099Z,20.29
2022-09-09T12:26:47.683Z,20.22
2022-09-09T12:27:46.971Z,20.36
2022-09-09T12:28:46.967Z,20.51
2022-09-09T12:29:46.879Z,20.62
2022-09-09T12:30:46.899Z,20.55
2022-09-09T12:31:46.787Z,20.52
2022-09-09T12:32:46.775Z,20.26
2022-09-09T12:33:46.729Z,20.28
2022-09-09T12:34:46.646Z,20.40
2022-09-09T12:35:46.616Z,20.44
2022-09-09T12:36:49.607Z,20.32
2022-09-09T12:37:46.637Z,20.28
2022-09-09T12:38:46.497Z,20.11
2022-09-09T12:39:46.467Z,20.02
2022-09-09T12:40:46.390Z,20.14
2022-09-09T12:41:46.354Z,20.26
2022-09-09T12:42:46.257Z,20.75
2022-09-09T12:43:46.203Z,21.29
2022-09-09T12:44:46.151Z,21.52
2022-09-09T12:45:46.122Z,21.55
2022-09-09T12:46:46.094Z,21.55
2022-09-09T12:47:46.031Z,21.61
2022-09-09T12:48:45.975Z,21.45
2022-09-09T12:49:45.928Z,21.30
2022-09-09T12:50:45.893Z,20.99
2022-09-09T12:51:45.862Z,20.84
2022-09-09T12:52:45.774Z,20.66
2022-09-09T12:53:45.736Z,20.43
2022-09-09T12:54:45.724Z,20.19
2022-09-09T12:55:45.671Z,20.09